Airfield :
LOGIN :

Register | Disclaimer

   EN    FR    IT 

 










Legend :    VFR   Marginal VFR   IFR   Intensive IFR   Very Intensive IFR
Visi :
Ceiling :
>= 8 km
>= 3000ft
5 to 8 km
1000 to 3000 ft
1500m to 5 km
500 to 1000 ft
800 to 1500m
200 to 500 ft
< 800m
< 200 ft
Symbols :   Thunderstorms  Fog  Heavy snow  Heavy precipitations  Wind > 20 kt
SIGMETs :     Misc.  Thunderstorms  Icing  Turbulence  Mountain Waves  Volcanic Ashes






- Airport Elevation : 184 ft
- IATA code : BRU


EBBR - Bruxelles

CURRENT METAR :
  • 160420Z 20007KT CAVOK 10/09 Q1009 NOSIG

EXPIRED METARs :
  • 160350Z 20008KT CAVOK 11/09 Q1009 NOSIG
  • 160320Z 21007KT CAVOK 11/09 Q1009 NOSIG
  • 160250Z 21010KT 9999 FEW014 11/10 Q1009 NOSIG
  • 160220Z 22011KT 9999 BKN010 12/10 Q1009 NOSIG
  • 160150Z 22009KT 9999 FEW008 BKN010 12/10 Q1009 NOSIG

TAF TAF EBBR
Valid from the 16 at 00:00 until the 17 at 06:00 UTC


152315Z 1600/1706 20010KT 9999 FEW015 SCT025
TEMPO 1607/1702 4000 RA SCT008 BKN012
TEMPO 1702/1706 3000 RADZ BKN006



MET'MAP, your aeronautical weather chart ! - Copyright ORBIFLY December 2007 - Disclaimer

ORBIFLY MET'MAP TEAM :

Programming & Development : Alexandra Zaïnal
Concept & Development : Baudouin d'Aumeries
Co-Development & Prog : Marc-Olivier Méhu
Technical & hardware support : Manuel Goepfert

Contact : metmap@orbifly.com




SOURCES & CREDITS :

   NOAA